sensor_id;sensor_type;location;lat;lon;timestamp;P1;durP1;ratioP1;P2;durP2;ratioP2
19560;SDS011;9927;47.792;10.616;2022-10-26T03:00:26;105.20;;;7.28;;
19560;SDS011;9927;47.792;10.616;2022-10-26T03:02:55;3.95;;;3.45;;
19560;SDS011;9927;47.792;10.616;2022-10-26T03:05:25;3.20;;;3.10;;
19560;SDS011;9927;47.792;10.616;2022-10-26T03:07:55;3.28;;;3.17;;
19560;SDS011;9927;47.792;10.616;2022-10-26T03:10:23;3.50;;;3.30;;
19560;SDS011;9927;47.792;10.616;2022-10-26T03:12:50;4.70;;;3.80;;
19560;SDS011;9927;47.792;10.616;2022-10-26T03:15:18;43.58;;;6.28;;
19560;SDS011;9927;47.792;10.616;2022-10-26T03:17:45;13.18;;;3.80;;
19560;SDS011;9927;47.792;10.616;2022-10-26T03:20:13;14.23;;;3.60;;
19560;SDS011;9927;47.792;10.616;2022-10-26T03:22:40;16.98;;;4.32;;
19560;SDS011;9927;47.792;10.616;2022-10-26T03:25:07;15.98;;;4.47;;
19560;SDS011;9927;47.792;10.616;2022-10-26T03:27:40;13.40;;;4.00;;
19560;SDS011;9927;47.792;10.616;2022-10-26T03:30:08;13.32;;;3.75;;
19560;SDS011;9927;47.792;10.616;2022-10-26T03:32:35;10.98;;;3.70;;
19560;SDS011;9927;47.792;10.616;2022-10-26T03:35:03;15.63;;;4.28;;
19560;SDS011;9927;47.792;10.616;2022-10-26T03:37:30;20.38;;;4.22;;
19560;SDS011;9927;47.792;10.616;2022-10-26T03:39:57;16.33;;;4.10;;
19560;SDS011;9927;47.792;10.616;2022-10-26T03:42:25;14.55;;;4.00;;
19560;SDS011;9927;47.792;10.616;2022-10-26T03:44:53;21.07;;;4.20;;
19560;SDS011;9927;47.792;10.616;2022-10-26T03:47:20;24.63;;;4.50;;
19560;SDS011;9927;47.792;10.616;2022-10-26T03:49:47;13.57;;;3.45;;
19560;SDS011;9927;47.792;10.616;2022-10-26T03:52:15;19.50;;;4.10;;
19560;SDS011;9927;47.792;10.616;2022-10-26T03:54:42;6.22;;;3.42;;
19560;SDS011;9927;47.792;10.616;2022-10-26T03:57:09;11.88;;;3.22;;
19560;SDS011;9927;47.792;10.616;2022-10-26T03:59:36;15.85;;;3.80;;
19560;SDS011;9927;47.792;10.616;2022-10-26T04:02:03;16.63;;;4.15;;
19560;SDS011;9927;47.792;10.616;2022-10-26T04:04:30;21.25;;;4.40;;
19560;SDS011;9927;47.792;10.616;2022-10-26T04:06:58;32.58;;;5.93;;
19560;SDS011;9927;47.792;10.616;2022-10-26T04:09:25;21.33;;;4.00;;
19560;SDS011;9927;47.792;10.616;2022-10-26T04:11:52;27.55;;;4.45;;
19560;SDS011;9927;47.792;10.616;2022-10-26T04:14:19;9.40;;;3.95;;
19560;SDS011;9927;47.792;10.616;2022-10-26T04:16:46;18.33;;;3.33;;
19560;SDS011;9927;47.792;10.616;2022-10-26T04:19:14;17.95;;;3.60;;
19560;SDS011;9927;47.792;10.616;2022-10-26T04:21:41;23.08;;;3.65;;
19560;SDS011;9927;47.792;10.616;2022-10-26T04:24:09;17.48;;;3.13;;
19560;SDS011;9927;47.792;10.616;2022-10-26T04:26:37;17.10;;;3.45;;
19560;SDS011;9927;47.792;10.616;2022-10-26T04:29:04;19.92;;;3.47;;
19560;SDS011;9927;47.792;10.616;2022-10-26T04:31:32;25.55;;;3.80;;
19560;SDS011;9927;47.792;10.616;2022-10-26T04:33:59;27.48;;;4.20;;
19560;SDS011;9927;47.792;10.616;2022-10-26T04:36:27;27.90;;;4.33;;
19560;SDS011;9927;47.792;10.616;2022-10-26T04:38:55;18.00;;;3.65;;
19560;SDS011;9927;47.792;10.616;2022-10-26T04:41:22;11.82;;;3.17;;
19560;SDS011;9927;47.792;10.616;2022-10-26T04:43:49;27.27;;;3.90;;
19560;SDS011;9927;47.792;10.616;2022-10-26T04:46:16;10.02;;;2.80;;
19560;SDS011;9927;47.792;10.616;2022-10-26T04:48:43;16.48;;;3.17;;
19560;SDS011;9927;47.792;10.616;2022-10-26T04:51:13;17.83;;;3.47;;
19560;SDS011;9927;47.792;10.616;2022-10-26T04:53:40;50.67;;;5.93;;
19560;SDS011;9927;47.792;10.616;2022-10-26T04:56:07;15.88;;;3.30;;
19560;SDS011;9927;47.792;10.616;2022-10-26T04:58:35;13.75;;;3.50;;
19560;SDS011;9927;47.792;10.616;2022-10-26T05:01:02;22.75;;;4.60;;
19560;SDS011;9927;47.792;10.616;2022-10-26T05:03:29;35.80;;;5.05;;
19560;SDS011;9927;47.792;10.616;2022-10-26T05:05:57;17.60;;;3.75;;
19560;SDS011;9927;47.792;10.616;2022-10-26T05:08:26;17.02;;;3.72;;
19560;SDS011;9927;47.792;10.616;2022-10-26T05:10:55;18.15;;;3.65;;
19560;SDS011;9927;47.792;10.616;2022-10-26T05:13:22;34.55;;;5.43;;
19560;SDS011;9927;47.792;10.616;2022-10-26T05:15:51;21.95;;;4.40;;
19560;SDS011;9927;47.792;10.616;2022-10-26T05:18:19;23.05;;;4.10;;
19560;SDS011;9927;47.792;10.616;2022-10-26T05:20:47;15.35;;;3.22;;
19560;SDS011;9927;47.792;10.616;2022-10-26T05:23:15;16.02;;;3.53;;
19560;SDS011;9927;47.792;10.616;2022-10-26T05:25:46;18.48;;;3.97;;
19560;SDS011;9927;47.792;10.616;2022-10-26T05:28:14;23.45;;;3.75;;
19560;SDS011;9927;47.792;10.616;2022-10-26T05:30:43;19.15;;;3.42;;
19560;SDS011;9927;47.792;10.616;2022-10-26T05:33:11;21.75;;;3.72;;
19560;SDS011;9927;47.792;10.616;2022-10-26T05:35:39;29.15;;;4.43;;
19560;SDS011;9927;47.792;10.616;2022-10-26T05:38:11;19.63;;;3.58;;
19560;SDS011;9927;47.792;10.616;2022-10-26T05:40:47;17.27;;;3.35;;
19560;SDS011;9927;47.792;10.616;2022-10-26T05:43:19;13.73;;;3.38;;
19560;SDS011;9927;47.792;10.616;2022-10-26T05:45:48;16.10;;;3.45;;
19560;SDS011;9927;47.792;10.616;2022-10-26T05:48:16;12.05;;;3.08;;
19560;SDS011;9927;47.792;10.616;2022-10-26T05:50:43;10.30;;;3.00;;
19560;SDS011;9927;47.792;10.616;2022-10-26T05:53:11;24.83;;;4.00;;
19560;SDS011;9927;47.792;10.616;2022-10-26T05:55:38;15.43;;;3.50;;
19560;SDS011;9927;47.792;10.616;2022-10-26T05:58:12;21.10;;;4.03;;
19560;SDS011;9927;47.792;10.616;2022-10-26T06:01:03;30.23;;;4.78;;
19560;SDS011;9927;47.792;10.616;2022-10-26T06:04:14;17.25;;;3.67;;
19560;SDS011;9927;47.792;10.616;2022-10-26T06:06:51;17.02;;;4.00;;
19560;SDS011;9927;47.792;10.616;2022-10-26T06:09:22;31.65;;;5.10;;
19560;SDS011;9927;47.792;10.616;2022-10-26T06:11:50;26.80;;;4.65;;
19560;SDS011;9927;47.792;10.616;2022-10-26T06:14:17;23.65;;;4.75;;
19560;SDS011;9927;47.792;10.616;2022-10-26T06:30:14;30.67;;;4.60;;
19560;SDS011;9927;47.792;10.616;2022-10-26T06:32:44;19.67;;;4.20;;
19560;SDS011;9927;47.792;10.616;2022-10-26T06:35:19;19.52;;;3.92;;
19560;SDS011;9927;47.792;10.616;2022-10-26T06:37:50;16.92;;;3.90;;
19560;SDS011;9927;47.792;10.616;2022-10-26T06:40:19;17.90;;;4.15;;
19560;SDS011;9927;47.792;10.616;2022-10-26T06:42:48;16.40;;;3.50;;
19560;SDS011;9927;47.792;10.616;2022-10-26T06:45:16;17.15;;;3.95;;
19560;SDS011;9927;47.792;10.616;2022-10-26T06:48:03;17.50;;;4.03;;
19560;SDS011;9927;47.792;10.616;2022-10-26T06:50:37;29.30;;;4.90;;
19560;SDS011;9927;47.792;10.616;2022-10-26T06:56:11;10.43;;;3.40;;
19560;SDS011;9927;47.792;10.616;2022-10-26T06:58:39;36.92;;;12.80;;
19560;SDS011;9927;47.792;10.616;2022-10-26T07:01:09;35.92;;;9.82;;
19560;SDS011;9927;47.792;10.616;2022-10-26T07:03:37;44.33;;;9.52;;
19560;SDS011;9927;47.792;10.616;2022-10-26T07:06:07;20.55;;;6.03;;
19560;SDS011;9927;47.792;10.616;2022-10-26T07:08:35;24.67;;;4.20;;
19560;SDS011;9927;47.792;10.616;2022-10-26T07:11:02;18.83;;;4.03;;
19560;SDS011;9927;47.792;10.616;2022-10-26T07:13:30;30.88;;;4.90;;
19560;SDS011;9927;47.792;10.616;2022-10-26T07:15:57;20.70;;;3.85;;
19560;SDS011;9927;47.792;10.616;2022-10-26T07:18:24;18.63;;;3.45;;
19560;SDS011;9927;47.792;10.616;2022-10-26T07:20:51;14.77;;;3.40;;
19560;SDS011;9927;47.792;10.616;2022-10-26T07:23:19;29.08;;;4.10;;
19560;SDS011;9927;47.792;10.616;2022-10-26T07:25:47;3.60;;;2.90;;
19560;SDS011;9927;47.792;10.616;2022-10-26T07:28:14;19.05;;;3.92;;
19560;SDS011;9927;47.792;10.616;2022-10-26T07:30:41;14.02;;;3.28;;
19560;SDS011;9927;47.792;10.616;2022-10-26T07:33:10;14.15;;;3.83;;
19560;SDS011;9927;47.792;10.616;2022-10-26T07:35:39;14.65;;;3.47;;
19560;SDS011;9927;47.792;10.616;2022-10-26T07:38:06;18.60;;;3.95;;
19560;SDS011;9927;47.792;10.616;2022-10-26T07:40:35;15.77;;;3.90;;
19560;SDS011;9927;47.792;10.616;2022-10-26T07:43:03;18.38;;;3.92;;
19560;SDS011;9927;47.792;10.616;2022-10-26T07:45:31;16.95;;;4.30;;
19560;SDS011;9927;47.792;10.616;2022-10-26T07:47:58;17.25;;;4.18;;
19560;SDS011;9927;47.792;10.616;2022-10-26T07:50:26;40.83;;;5.50;;
19560;SDS011;9927;47.792;10.616;2022-10-26T07:52:53;13.40;;;4.40;;
19560;SDS011;9927;47.792;10.616;2022-10-26T07:55:20;13.90;;;4.65;;
19560;SDS011;9927;47.792;10.616;2022-10-26T07:57:47;23.38;;;5.72;;
19560;SDS011;9927;47.792;10.616;2022-10-26T08:00:20;25.38;;;6.13;;
19560;SDS011;9927;47.792;10.616;2022-10-26T08:02:47;15.40;;;4.70;;
19560;SDS011;9927;47.792;10.616;2022-10-26T08:05:15;23.95;;;5.80;;
19560;SDS011;9927;47.792;10.616;2022-10-26T08:07:43;20.70;;;5.38;;
19560;SDS011;9927;47.792;10.616;2022-10-26T08:10:11;28.73;;;6.00;;
19560;SDS011;9927;47.792;10.616;2022-10-26T08:12:39;14.52;;;4.50;;
19560;SDS011;9927;47.792;10.616;2022-10-26T08:15:07;16.92;;;5.43;;
19560;SDS011;9927;47.792;10.616;2022-10-26T08:17:34;17.77;;;4.85;;
19560;SDS011;9927;47.792;10.616;2022-10-26T08:20:02;17.95;;;5.03;;
19560;SDS011;9927;47.792;10.616;2022-10-26T08:22:29;17.52;;;4.90;;
19560;SDS011;9927;47.792;10.616;2022-10-26T08:24:57;15.30;;;4.75;;
19560;SDS011;9927;47.792;10.616;2022-10-26T08:27:24;18.30;;;5.50;;
19560;SDS011;9927;47.792;10.616;2022-10-26T08:29:51;16.70;;;6.32;;
19560;SDS011;9927;47.792;10.616;2022-10-26T08:32:18;24.50;;;8.30;;
19560;SDS011;9927;47.792;10.616;2022-10-26T08:34:45;13.27;;;6.35;;
19560;SDS011;9927;47.792;10.616;2022-10-26T08:37:12;22.27;;;6.00;;
19560;SDS011;9927;47.792;10.616;2022-10-26T08:39:40;19.50;;;4.45;;
19560;SDS011;9927;47.792;10.616;2022-10-26T08:42:11;20.73;;;3.70;;
19560;SDS011;9927;47.792;10.616;2022-10-26T08:44:45;20.60;;;3.40;;
19560;SDS011;9927;47.792;10.616;2022-10-26T08:47:20;14.77;;;2.90;;
19560;SDS011;9927;47.792;10.616;2022-10-26T08:49:53;22.50;;;3.35;;
19560;SDS011;9927;47.792;10.616;2022-10-26T08:52:43;18.08;;;3.25;;
19560;SDS011;9927;47.792;10.616;2022-10-26T08:55:17;15.73;;;2.90;;
19560;SDS011;9927;47.792;10.616;2022-10-26T08:57:46;17.30;;;3.15;;
19560;SDS011;9927;47.792;10.616;2022-10-26T09:02:48;16.75;;;3.17;;
19560;SDS011;9927;47.792;10.616;2022-10-26T09:05:17;17.55;;;3.00;;
19560;SDS011;9927;47.792;10.616;2022-10-26T09:13:27;19.15;;;3.40;;
19560;SDS011;9927;47.792;10.616;2022-10-26T09:21:42;2.28;;;1.95;;
19560;SDS011;9927;47.792;10.616;2022-10-26T09:24:15;2.20;;;2.00;;
19560;SDS011;9927;47.792;10.616;2022-10-26T09:29:35;2.90;;;2.15;;
19560;SDS011;9927;47.792;10.616;2022-10-26T09:32:12;4.20;;;2.45;;
19560;SDS011;9927;47.792;10.616;2022-10-26T09:34:54;3.58;;;2.40;;
19560;SDS011;9927;47.792;10.616;2022-10-26T09:37:29;2.42;;;2.10;;
19560;SDS011;9927;47.792;10.616;2022-10-26T09:42:44;4.78;;;2.30;;
19560;SDS011;9927;47.792;10.616;2022-10-26T09:45:49;2.70;;;2.47;;
19560;SDS011;9927;47.792;10.616;2022-10-26T09:51:15;3.65;;;2.15;;
19560;SDS011;9927;47.792;10.616;2022-10-26T09:53:43;4.07;;;2.30;;
19560;SDS011;9927;47.792;10.616;2022-10-26T09:56:12;3.30;;;2.30;;
19560;SDS011;9927;47.792;10.616;2022-10-26T09:58:41;3.30;;;3.00;;
19560;SDS011;9927;47.792;10.616;2022-10-26T10:01:31;6.10;;;2.50;;
19560;SDS011;9927;47.792;10.616;2022-10-26T10:09:27;5.15;;;2.60;;
19560;SDS011;9927;47.792;10.616;2022-10-26T10:11:58;3.72;;;2.25;;
19560;SDS011;9927;47.792;10.616;2022-10-26T10:17:06;4.18;;;2.67;;
19560;SDS011;9927;47.792;10.616;2022-10-26T10:19:46;2.60;;;2.40;;
19560;SDS011;9927;47.792;10.616;2022-10-26T10:24:42;5.03;;;2.40;;
19560;SDS011;9927;47.792;10.616;2022-10-26T10:27:29;4.60;;;2.40;;
19560;SDS011;9927;47.792;10.616;2022-10-26T10:30:18;4.55;;;2.35;;
19560;SDS011;9927;47.792;10.616;2022-10-26T10:33:02;3.85;;;2.00;;
19560;SDS011;9927;47.792;10.616;2022-10-26T10:35:30;4.78;;;2.33;;
19560;SDS011;9927;47.792;10.616;2022-10-26T10:37:57;5.75;;;2.53;;
19560;SDS011;9927;47.792;10.616;2022-10-26T10:40:26;3.65;;;2.22;;
19560;SDS011;9927;47.792;10.616;2022-10-26T10:43:10;2.72;;;2.10;;
19560;SDS011;9927;47.792;10.616;2022-10-26T10:45:40;3.22;;;2.55;;
19560;SDS011;9927;47.792;10.616;2022-10-26T10:48:15;2.30;;;2.20;;
19560;SDS011;9927;47.792;10.616;2022-10-26T10:50:50;2.55;;;2.15;;
19560;SDS011;9927;47.792;10.616;2022-10-26T10:53:36;2.33;;;2.13;;
19560;SDS011;9927;47.792;10.616;2022-10-26T11:02:00;2.92;;;2.00;;
19560;SDS011;9927;47.792;10.616;2022-10-26T11:08:03;2.63;;;2.28;;
19560;SDS011;9927;47.792;10.616;2022-10-26T11:10:36;2.22;;;1.90;;
19560;SDS011;9927;47.792;10.616;2022-10-26T11:13:23;5.40;;;1.92;;
19560;SDS011;9927;47.792;10.616;2022-10-26T11:16:09;2.97;;;1.88;;
19560;SDS011;9927;47.792;10.616;2022-10-26T11:19:03;3.40;;;2.20;;
19560;SDS011;9927;47.792;10.616;2022-10-26T11:21:42;2.67;;;2.00;;
19560;SDS011;9927;47.792;10.616;2022-10-26T11:27:24;3.47;;;2.13;;
19560;SDS011;9927;47.792;10.616;2022-10-26T11:32:43;2.60;;;2.28;;
19560;SDS011;9927;47.792;10.616;2022-10-26T11:35:31;1.83;;;1.70;;
19560;SDS011;9927;47.792;10.616;2022-10-26T11:38:15;1.85;;;1.70;;
19560;SDS011;9927;47.792;10.616;2022-10-26T11:41:14;4.20;;;2.20;;
19560;SDS011;9927;47.792;10.616;2022-10-26T11:43:46;6.13;;;2.25;;
19560;SDS011;9927;47.792;10.616;2022-10-26T11:46:20;2.15;;;1.98;;
19560;SDS011;9927;47.792;10.616;2022-10-26T11:48:57;5.05;;;2.20;;
19560;SDS011;9927;47.792;10.616;2022-10-26T11:51:50;2.00;;;1.80;;
19560;SDS011;9927;47.792;10.616;2022-10-26T11:54:32;3.10;;;2.00;;
19560;SDS011;9927;47.792;10.616;2022-10-26T11:57:04;4.57;;;1.92;;
19560;SDS011;9927;47.792;10.616;2022-10-26T11:59:34;4.13;;;2.15;;
19560;SDS011;9927;47.792;10.616;2022-10-26T12:02:25;3.17;;;2.00;;
19560;SDS011;9927;47.792;10.616;2022-10-26T12:05:05;3.17;;;2.17;;
19560;SDS011;9927;47.792;10.616;2022-10-26T12:07:34;5.18;;;2.15;;
19560;SDS011;9927;47.792;10.616;2022-10-26T12:10:07;3.15;;;2.20;;
19560;SDS011;9927;47.792;10.616;2022-10-26T12:12:51;5.72;;;2.28;;
19560;SDS011;9927;47.792;10.616;2022-10-26T12:21:28;2.80;;;2.22;;
19560;SDS011;9927;47.792;10.616;2022-10-26T12:26:50;4.72;;;2.15;;
19560;SDS011;9927;47.792;10.616;2022-10-26T12:29:32;3.15;;;2.40;;
19560;SDS011;9927;47.792;10.616;2022-10-26T12:35:00;5.28;;;2.70;;
19560;SDS011;9927;47.792;10.616;2022-10-26T12:37:30;6.10;;;2.55;;
19560;SDS011;9927;47.792;10.616;2022-10-26T12:45:40;7.65;;;2.70;;
19560;SDS011;9927;47.792;10.616;2022-10-26T12:48:38;4.13;;;2.50;;
19560;SDS011;9927;47.792;10.616;2022-10-26T12:53:49;4.97;;;2.75;;
19560;SDS011;9927;47.792;10.616;2022-10-26T12:56:23;7.05;;;2.70;;
19560;SDS011;9927;47.792;10.616;2022-10-26T13:02:06;5.57;;;2.50;;
19560;SDS011;9927;47.792;10.616;2022-10-26T13:07:25;8.85;;;3.25;;
19560;SDS011;9927;47.792;10.616;2022-10-26T13:10:03;5.88;;;2.83;;
19560;SDS011;9927;47.792;10.616;2022-10-26T13:12:44;3.58;;;2.55;;
19560;SDS011;9927;47.792;10.616;2022-10-26T13:15:21;6.30;;;2.90;;
19560;SDS011;9927;47.792;10.616;2022-10-26T13:20:33;6.47;;;3.05;;
19560;SDS011;9927;47.792;10.616;2022-10-26T13:23:02;5.50;;;2.88;;
19560;SDS011;9927;47.792;10.616;2022-10-26T13:25:43;8.73;;;3.33;;
19560;SDS011;9927;47.792;10.616;2022-10-26T13:34:01;7.68;;;3.20;;
19560;SDS011;9927;47.792;10.616;2022-10-26T13:39:39;11.00;;;3.80;;
19560;SDS011;9927;47.792;10.616;2022-10-26T13:42:15;5.78;;;2.95;;
19560;SDS011;9927;47.792;10.616;2022-10-26T13:47:28;5.43;;;3.10;;
19560;SDS011;9927;47.792;10.616;2022-10-26T13:50:09;11.30;;;3.75;;
19560;SDS011;9927;47.792;10.616;2022-10-26T13:52:41;6.95;;;3.00;;
19560;SDS011;9927;47.792;10.616;2022-10-26T13:55:25;4.78;;;2.80;;
19560;SDS011;9927;47.792;10.616;2022-10-26T14:01:02;5.82;;;3.05;;
19560;SDS011;9927;47.792;10.616;2022-10-26T14:03:36;5.90;;;2.80;;
19560;SDS011;9927;47.792;10.616;2022-10-26T14:06:04;6.15;;;3.13;;
19560;SDS011;9927;47.792;10.616;2022-10-26T14:08:38;6.07;;;3.10;;
19560;SDS011;9927;47.792;10.616;2022-10-26T14:11:07;5.45;;;3.05;;
19560;SDS011;9927;47.792;10.616;2022-10-26T14:13:38;6.60;;;3.50;;
19560;SDS011;9927;47.792;10.616;2022-10-26T14:16:08;6.07;;;3.40;;
19560;SDS011;9927;47.792;10.616;2022-10-26T14:18:41;5.32;;;3.35;;
19560;SDS011;9927;47.792;10.616;2022-10-26T14:21:12;9.27;;;3.47;;
19560;SDS011;9927;47.792;10.616;2022-10-26T14:26:57;5.53;;;3.05;;
19560;SDS011;9927;47.792;10.616;2022-10-26T14:29:17;7.78;;;3.33;;
19560;SDS011;9927;47.792;10.616;2022-10-26T14:31:47;7.57;;;3.13;;
19560;SDS011;9927;47.792;10.616;2022-10-26T14:34:15;6.07;;;3.25;;
19560;SDS011;9927;47.792;10.616;2022-10-26T14:41:56;4.85;;;3.15;;
19560;SDS011;9927;47.792;10.616;2022-10-26T14:44:25;5.78;;;2.95;;
19560;SDS011;9927;47.792;10.616;2022-10-26T14:46:53;5.82;;;3.20;;
19560;SDS011;9927;47.792;10.616;2022-10-26T14:49:23;7.18;;;3.00;;
19560;SDS011;9927;47.792;10.616;2022-10-26T14:51:59;5.57;;;3.20;;
19560;SDS011;9927;47.792;10.616;2022-10-26T14:54:31;6.57;;;3.00;;
19560;SDS011;9927;47.792;10.616;2022-10-26T14:57:00;7.05;;;2.63;;
19560;SDS011;9927;47.792;10.616;2022-10-26T14:59:34;7.05;;;3.13;;
19560;SDS011;9927;47.792;10.616;2022-10-26T15:02:19;5.70;;;3.25;;
19560;SDS011;9927;47.792;10.616;2022-10-26T15:04:58;4.53;;;2.65;;
19560;SDS011;9927;47.792;10.616;2022-10-26T15:07:34;4.43;;;2.80;;
19560;SDS011;9927;47.792;10.616;2022-10-26T15:10:03;9.95;;;3.13;;
19560;SDS011;9927;47.792;10.616;2022-10-26T15:12:32;7.85;;;3.47;;
19560;SDS011;9927;47.792;10.616;2022-10-26T15:17:58;6.10;;;3.40;;
19560;SDS011;9927;47.792;10.616;2022-10-26T15:20:26;74.15;;;6.53;;
19560;SDS011;9927;47.792;10.616;2022-10-26T15:22:58;17.92;;;3.95;;
19560;SDS011;9927;47.792;10.616;2022-10-26T15:25:28;29.30;;;5.53;;
19560;SDS011;9927;47.792;10.616;2022-10-26T15:28:17;23.30;;;4.60;;
19560;SDS011;9927;47.792;10.616;2022-10-26T15:30:59;27.15;;;4.97;;
19560;SDS011;9927;47.792;10.616;2022-10-26T15:36:22;29.67;;;5.22;;
19560;SDS011;9927;47.792;10.616;2022-10-26T15:38:51;20.42;;;4.30;;
19560;SDS011;9927;47.792;10.616;2022-10-26T15:41:25;11.25;;;3.80;;
19560;SDS011;9927;47.792;10.616;2022-10-26T15:44:08;21.25;;;4.53;;
19560;SDS011;9927;47.792;10.616;2022-10-26T15:46:41;21.88;;;4.40;;
19560;SDS011;9927;47.792;10.616;2022-10-26T15:49:13;21.67;;;5.00;;
19560;SDS011;9927;47.792;10.616;2022-10-26T15:51:44;22.63;;;5.53;;
19560;SDS011;9927;47.792;10.616;2022-10-26T15:54:12;45.67;;;7.15;;
19560;SDS011;9927;47.792;10.616;2022-10-26T15:56:40;21.63;;;5.55;;
19560;SDS011;9927;47.792;10.616;2022-10-26T15:59:11;24.58;;;4.70;;
19560;SDS011;9927;47.792;10.616;2022-10-26T16:01:40;26.60;;;5.13;;
19560;SDS011;9927;47.792;10.616;2022-10-26T16:04:08;36.63;;;5.68;;
19560;SDS011;9927;47.792;10.616;2022-10-26T16:06:39;27.23;;;4.82;;
19560;SDS011;9927;47.792;10.616;2022-10-26T16:09:14;24.80;;;4.80;;
19560;SDS011;9927;47.792;10.616;2022-10-26T16:11:43;33.40;;;5.43;;
19560;SDS011;9927;47.792;10.616;2022-10-26T16:14:10;36.40;;;5.90;;
19560;SDS011;9927;47.792;10.616;2022-10-26T16:16:38;28.60;;;5.03;;
19560;SDS011;9927;47.792;10.616;2022-10-26T16:19:07;5.38;;;3.42;;
19560;SDS011;9927;47.792;10.616;2022-10-26T16:21:55;20.90;;;4.45;;
19560;SDS011;9927;47.792;10.616;2022-10-26T16:24:22;25.20;;;5.20;;
19560;SDS011;9927;47.792;10.616;2022-10-26T16:26:49;22.58;;;4.13;;
19560;SDS011;9927;47.792;10.616;2022-10-26T16:29:17;17.73;;;4.43;;
19560;SDS011;9927;47.792;10.616;2022-10-26T16:31:45;22.95;;;4.55;;
19560;SDS011;9927;47.792;10.616;2022-10-26T16:34:13;32.88;;;5.55;;
19560;SDS011;9927;47.792;10.616;2022-10-26T16:36:40;24.75;;;5.95;;
19560;SDS011;9927;47.792;10.616;2022-10-26T16:39:08;18.75;;;5.35;;
19560;SDS011;9927;47.792;10.616;2022-10-26T16:41:37;21.10;;;5.18;;
19560;SDS011;9927;47.792;10.616;2022-10-26T16:44:04;23.42;;;5.78;;
19560;SDS011;9927;47.792;10.616;2022-10-26T16:46:31;31.30;;;5.93;;
19560;SDS011;9927;47.792;10.616;2022-10-26T16:48:59;35.97;;;6.28;;
19560;SDS011;9927;47.792;10.616;2022-10-26T16:51:26;33.45;;;6.32;;
19560;SDS011;9927;47.792;10.616;2022-10-26T16:53:55;34.15;;;8.15;;
19560;SDS011;9927;47.792;10.616;2022-10-26T16:56:24;22.42;;;6.70;;
19560;SDS011;9927;47.792;10.616;2022-10-26T16:58:55;26.98;;;6.72;;
19560;SDS011;9927;47.792;10.616;2022-10-26T17:01:23;31.60;;;7.53;;
19560;SDS011;9927;47.792;10.616;2022-10-26T17:03:51;23.75;;;7.65;;
19560;SDS011;9927;47.792;10.616;2022-10-26T17:06:19;33.47;;;8.10;;
19560;SDS011;9927;47.792;10.616;2022-10-26T17:08:46;30.88;;;8.10;;
19560;SDS011;9927;47.792;10.616;2022-10-26T17:11:15;24.63;;;7.63;;
19560;SDS011;9927;47.792;10.616;2022-10-26T17:13:43;62.90;;;10.18;;
19560;SDS011;9927;47.792;10.616;2022-10-26T17:16:15;30.13;;;7.28;;
19560;SDS011;9927;47.792;10.616;2022-10-26T17:18:44;28.67;;;7.63;;
19560;SDS011;9927;47.792;10.616;2022-10-26T17:21:13;32.92;;;7.55;;
19560;SDS011;9927;47.792;10.616;2022-10-26T17:23:42;74.18;;;10.93;;
19560;SDS011;9927;47.792;10.616;2022-10-26T17:26:11;32.55;;;7.68;;
19560;SDS011;9927;47.792;10.616;2022-10-26T17:28:39;32.00;;;8.10;;
19560;SDS011;9927;47.792;10.616;2022-10-26T17:31:08;34.10;;;8.73;;
19560;SDS011;9927;47.792;10.616;2022-10-26T17:33:36;55.53;;;9.98;;
19560;SDS011;9927;47.792;10.616;2022-10-26T17:36:05;27.55;;;7.03;;
19560;SDS011;9927;47.792;10.616;2022-10-26T17:38:33;19.15;;;6.07;;
19560;SDS011;9927;47.792;10.616;2022-10-26T17:41:03;12.80;;;5.57;;
19560;SDS011;9927;47.792;10.616;2022-10-26T17:43:33;43.22;;;8.75;;
19560;SDS011;9927;47.792;10.616;2022-10-26T17:46:03;25.02;;;7.65;;
19560;SDS011;9927;47.792;10.616;2022-10-26T17:48:32;23.17;;;7.88;;
19560;SDS011;9927;47.792;10.616;2022-10-26T17:51:00;17.52;;;8.80;;
19560;SDS011;9927;47.792;10.616;2022-10-26T17:53:29;47.40;;;11.05;;
19560;SDS011;9927;47.792;10.616;2022-10-26T17:56:00;34.28;;;9.77;;
19560;SDS011;9927;47.792;10.616;2022-10-26T17:58:29;37.95;;;10.10;;
19560;SDS011;9927;47.792;10.616;2022-10-26T18:01:06;39.03;;;9.77;;
19560;SDS011;9927;47.792;10.616;2022-10-26T18:03:36;59.60;;;11.43;;
19560;SDS011;9927;47.792;10.616;2022-10-26T18:06:05;49.15;;;10.07;;
19560;SDS011;9927;47.792;10.616;2022-10-26T18:08:33;30.98;;;8.70;;
19560;SDS011;9927;47.792;10.616;2022-10-26T18:11:02;30.40;;;8.52;;
19560;SDS011;9927;47.792;10.616;2022-10-26T18:13:31;47.90;;;10.13;;
19560;SDS011;9927;47.792;10.616;2022-10-26T18:16:05;29.38;;;9.00;;
19560;SDS011;9927;47.792;10.616;2022-10-26T18:18:35;25.70;;;10.13;;
19560;SDS011;9927;47.792;10.616;2022-10-26T18:21:03;44.08;;;11.18;;
19560;SDS011;9927;47.792;10.616;2022-10-26T18:23:36;60.67;;;12.05;;
19560;SDS011;9927;47.792;10.616;2022-10-26T18:28:55;37.38;;;9.68;;
19560;SDS011;9927;47.792;10.616;2022-10-26T18:31:24;32.47;;;9.43;;
19560;SDS011;9927;47.792;10.616;2022-10-26T18:33:55;29.88;;;9.15;;
19560;SDS011;9927;47.792;10.616;2022-10-26T18:36:24;33.95;;;8.32;;
19560;SDS011;9927;47.792;10.616;2022-10-26T18:38:52;30.73;;;8.70;;
19560;SDS011;9927;47.792;10.616;2022-10-26T18:41:20;25.63;;;8.98;;
19560;SDS011;9927;47.792;10.616;2022-10-26T18:43:49;29.05;;;9.80;;
19560;SDS011;9927;47.792;10.616;2022-10-26T18:46:21;42.70;;;11.38;;
19560;SDS011;9927;47.792;10.616;2022-10-26T18:48:50;43.05;;;11.23;;
19560;SDS011;9927;47.792;10.616;2022-10-26T18:51:22;27.92;;;11.40;;
19560;SDS011;9927;47.792;10.616;2022-10-26T18:53:51;33.10;;;12.00;;
19560;SDS011;9927;47.792;10.616;2022-10-26T18:56:19;36.58;;;11.65;;
19560;SDS011;9927;47.792;10.616;2022-10-26T18:58:49;29.48;;;9.15;;
19560;SDS011;9927;47.792;10.616;2022-10-26T19:01:22;32.42;;;10.45;;
19560;SDS011;9927;47.792;10.616;2022-10-26T19:04:01;28.65;;;10.15;;
19560;SDS011;9927;47.792;10.616;2022-10-26T19:06:30;45.03;;;11.95;;
19560;SDS011;9927;47.792;10.616;2022-10-26T19:09:18;34.25;;;10.65;;
19560;SDS011;9927;47.792;10.616;2022-10-26T19:11:45;35.63;;;10.90;;
19560;SDS011;9927;47.792;10.616;2022-10-26T19:14:13;23.83;;;11.23;;
19560;SDS011;9927;47.792;10.616;2022-10-26T19:16:40;40.60;;;12.88;;
19560;SDS011;9927;47.792;10.616;2022-10-26T19:19:13;44.50;;;15.18;;
19560;SDS011;9927;47.792;10.616;2022-10-26T19:21:42;42.35;;;14.15;;
19560;SDS011;9927;47.792;10.616;2022-10-26T19:24:14;52.97;;;14.02;;
19560;SDS011;9927;47.792;10.616;2022-10-26T19:26:43;39.45;;;12.45;;
19560;SDS011;9927;47.792;10.616;2022-10-26T19:29:12;32.22;;;11.52;;
19560;SDS011;9927;47.792;10.616;2022-10-26T19:31:44;28.98;;;9.98;;
19560;SDS011;9927;47.792;10.616;2022-10-26T19:34:14;37.05;;;12.93;;
19560;SDS011;9927;47.792;10.616;2022-10-26T19:36:42;22.75;;;11.02;;
19560;SDS011;9927;47.792;10.616;2022-10-26T19:39:15;29.80;;;10.60;;
19560;SDS011;9927;47.792;10.616;2022-10-26T19:41:43;26.92;;;9.00;;
19560;SDS011;9927;47.792;10.616;2022-10-26T19:44:11;30.70;;;9.23;;
19560;SDS011;9927;47.792;10.616;2022-10-26T19:46:41;30.40;;;8.88;;
19560;SDS011;9927;47.792;10.616;2022-10-26T19:49:08;35.50;;;10.48;;
19560;SDS011;9927;47.792;10.616;2022-10-26T19:51:37;25.45;;;8.55;;
19560;SDS011;9927;47.792;10.616;2022-10-26T19:54:05;32.67;;;10.30;;
19560;SDS011;9927;47.792;10.616;2022-10-26T19:56:33;32.45;;;10.38;;
19560;SDS011;9927;47.792;10.616;2022-10-26T19:59:01;31.08;;;9.15;;
19560;SDS011;9927;47.792;10.616;2022-10-26T20:01:29;24.02;;;8.30;;
19560;SDS011;9927;47.792;10.616;2022-10-26T20:03:56;29.25;;;8.85;;
19560;SDS011;9927;47.792;10.616;2022-10-26T20:06:23;22.10;;;8.55;;